This is the latest recevied weather packets stored in our database for station/object N7CW. If no packets are shown the sender has not sent any weather packets the latest 1 day(s).
| Time | Temp. | Humidity | Pressure | Rain* | Wind** | Luminosity | Snow |
|---|---|---|---|---|---|---|---|
| 1778066717 | 4.44° C | 63% | 1016.2 hPa | 0 mm | - | 0 W/m² | - |
| 1778064597 | 3.89° C | 66% | 1016.4 hPa | 0 mm | - | 0 W/m² | - |
| 1778063993 | 4.44° C | 62% | 1016 hPa | 0 mm | - | 0 W/m² | - |
| 1778062478 | 5.56° C | 60% | 1016.2 hPa | 0 mm | - | 0 W/m² | - |
| 1778061874 | 5.56° C | 60% | 1016.1 hPa | 0 mm | - | 0 W/m² | - |
| 1778061270 | 5.56° C | 60% | 1016.2 hPa | 0 mm | - | 0 W/m² | - |
| 1778060965 | 6.11° C | 57% | 1016.2 hPa | 0 mm | - | 0 W/m² | - |
| 1778060361 | 6.67° C | 57% | 1016.2 hPa | 0 mm | - | 0 W/m² | - |
| 1778060059 | 6.11° C | 57% | 1016 hPa | 0 mm | - | 0 W/m² | - |
| 1778059455 | 6.67° C | 56% | 1016 hPa | 0 mm | - | 0 W/m² | - |
| 1778058849 | 6.67° C | 55% | 1015.8 hPa | 0 mm | - | 0 W/m² | - |
| 1778057940 | 7.22° C | 54% | 1015.8 hPa | 0 mm | - | 0 W/m² | - |
| 1778056726 | 6.67° C | 55% | 1015.9 hPa | 0 mm | - | 0 W/m² | - |
| 1778055812 | 6.11° C | 55% | 1015.7 hPa | 0 mm | - | 0 W/m² | - |
| 1778055508 | 5.56° C | 57% | 1015.7 hPa | 0 mm | - | 0 W/m² | - |
| 1778054904 | 6.67° C | 54% | 1015.7 hPa | 0 mm | - | 0 W/m² | - |
| 1778054298 | 6.11° C | 55% | 1015.7 hPa | 0 mm | - | 0 W/m² | - |
| 1778053086 | 6.11° C | 56% | 1016 hPa | 0 mm | - | 0 W/m² | - |
| 1778052784 | 5.56° C | 57% | 1016.2 hPa | 0 mm | - | 0 W/m² | - |
| 1778052179 | 5.56° C | 56% | 1016 hPa | 0 mm | - | 0 W/m² | - |
| 1778051876 | 5.56° C | 55% | 1015.8 hPa | 0 mm | - | 0 W/m² | - |
| 1778051574 | 5.56° C | 57% | 1015.9 hPa | 0 mm | - | 0 W/m² | - |
| 1778050665 | 6.67° C | 53% | 1015.8 hPa | 0 mm | - | 0 W/m² | - |
| 1778050362 | 6.67° C | 53% | 1015.7 hPa | 0 mm | - | 0 W/m² | - |
| 1778050058 | 7.22° C | 51% | 1016.1 hPa | 0 mm | - | 0 W/m² | - |
* Rain latest hour (hover to see other rain measurements)
** Current wind speed in m/s (hover to see current wind gust speed)